createdAt,value
2023-01-11T00:00:48.775Z,4.20
2023-01-11T00:01:48.663Z,5.10
2023-01-11T00:02:48.617Z,4.40
2023-01-11T00:03:48.541Z,4.20
2023-01-11T00:04:48.484Z,4.40
2023-01-11T00:05:48.383Z,4.40
2023-01-11T00:06:48.671Z,4.30
2023-01-11T00:07:48.317Z,4.20
2023-01-11T00:08:48.201Z,4.30
2023-01-11T00:09:48.102Z,4.70
2023-01-11T00:10:48.099Z,5.10
2023-01-11T00:11:48.011Z,4.40
2023-01-11T00:12:47.956Z,4.50
2023-01-11T00:13:47.896Z,4.30
2023-01-11T00:14:47.812Z,4.40
2023-01-11T00:15:47.772Z,4.60
2023-01-11T00:16:47.718Z,4.00
2023-01-11T00:17:47.649Z,5.10
2023-01-11T00:18:47.544Z,5.10
2023-01-11T00:19:47.489Z,4.70
2023-01-11T00:20:47.455Z,4.30
2023-01-11T00:21:47.371Z,4.30
2023-01-11T00:22:47.308Z,4.80
2023-01-11T00:23:47.271Z,4.90
2023-01-11T00:24:47.226Z,4.10
2023-01-11T00:25:47.121Z,3.60
2023-01-11T00:26:47.023Z,3.50
2023-01-11T00:27:47.018Z,4.40
2023-01-11T00:28:46.922Z,4.20
2023-01-11T00:29:46.867Z,4.60
2023-01-11T00:30:46.886Z,3.90
2023-01-11T00:31:46.773Z,4.30
2023-01-11T00:32:47.278Z,4.70
2023-01-11T00:33:46.597Z,4.90
2023-01-11T00:34:46.578Z,4.20
2023-01-11T00:35:46.512Z,3.90
2023-01-11T00:36:46.441Z,5.30
2023-01-11T00:37:46.396Z,4.00
2023-01-11T00:38:46.318Z,3.60
2023-01-11T00:39:46.227Z,3.80
2023-01-11T00:40:46.146Z,4.20
2023-01-11T00:41:46.126Z,4.40
2023-01-11T00:42:46.077Z,4.30
2023-01-11T00:43:46.044Z,4.40
2023-01-11T00:44:45.902Z,3.60
2023-01-11T00:45:46.819Z,4.30
2023-01-11T00:46:45.847Z,3.90
2023-01-11T00:47:45.747Z,4.10
2023-01-11T00:48:45.735Z,4.10
2023-01-11T00:49:45.624Z,3.90
2023-01-11T00:50:45.541Z,3.80
2023-01-11T00:51:45.442Z,4.20
2023-01-11T00:52:45.384Z,4.30
2023-01-11T00:53:45.316Z,4.50
2023-01-11T00:54:46.275Z,4.00
2023-01-11T00:55:45.260Z,4.40
2023-01-11T00:56:45.161Z,4.10
2023-01-11T00:57:45.129Z,4.20
2023-01-11T00:58:45.003Z,3.80
2023-01-11T00:59:44.943Z,3.50
2023-01-11T01:00:44.915Z,3.70
2023-01-11T01:01:44.896Z,4.00
2023-01-11T01:02:44.854Z,3.70
2023-01-11T01:03:44.708Z,3.60
2023-01-11T01:04:44.658Z,3.90
2023-01-11T01:05:44.604Z,3.80
2023-01-11T01:08:31.731Z,3.40
2023-01-11T01:09:32.700Z,3.80
2023-01-11T01:10:32.611Z,3.50
2023-01-11T01:11:32.609Z,4.00
2023-01-11T01:12:32.505Z,3.50
2023-01-11T01:13:32.437Z,3.40
2023-01-11T01:14:32.382Z,3.90
2023-01-11T01:15:32.329Z,3.90
2023-01-11T01:16:32.254Z,4.30
2023-01-11T01:17:32.172Z,4.60
2023-01-11T01:18:32.105Z,3.70
2023-01-11T01:19:32.084Z,4.00
2023-01-11T01:20:31.971Z,3.80
2023-01-11T01:21:31.929Z,4.90
2023-01-11T01:22:31.818Z,3.60
2023-01-11T01:23:31.864Z,4.10
2023-01-11T01:24:31.745Z,3.70
2023-01-11T01:25:31.739Z,4.20
2023-01-11T01:26:31.588Z,4.30
2023-01-11T01:27:31.554Z,3.80
2023-01-11T01:28:31.470Z,3.70
2023-01-11T01:29:31.419Z,3.60
2023-01-11T01:30:31.339Z,3.70
2023-01-11T01:31:31.383Z,4.20
2023-01-11T01:32:31.237Z,4.40
2023-01-11T01:33:31.197Z,4.10
2023-01-11T01:34:31.062Z,4.60
2023-01-11T01:35:31.016Z,4.70
2023-01-11T01:36:30.963Z,5.00
2023-01-11T01:37:30.917Z,4.60
2023-01-11T01:38:30.863Z,4.90
2023-01-11T01:39:30.792Z,4.40
2023-01-11T01:40:30.704Z,4.40
2023-01-11T01:41:30.636Z,4.10
2023-01-11T01:42:30.592Z,4.70
2023-01-11T01:45:48.952Z,4.20
2023-01-11T01:46:49.855Z,4.50
2023-01-11T01:47:49.856Z,4.60
2023-01-11T01:48:49.744Z,4.10
2023-01-11T01:49:49.699Z,4.70
2023-01-11T01:50:49.651Z,4.20
2023-01-11T01:51:49.591Z,4.80
2023-01-11T01:52:49.476Z,4.70
2023-01-11T01:53:49.469Z,4.20
2023-01-11T01:54:49.367Z,4.80
2023-01-11T01:55:49.310Z,4.90
2023-01-11T01:56:49.260Z,4.80
2023-01-11T01:57:49.205Z,4.60
2023-01-11T01:58:49.132Z,5.50
2023-01-11T01:59:49.061Z,4.60
2023-01-11T02:00:49.001Z,4.70
2023-01-11T02:01:49.031Z,4.10
2023-01-11T02:02:48.990Z,4.60
2023-01-11T02:03:48.787Z,4.50
2023-01-11T02:04:48.752Z,4.80
2023-01-11T02:05:48.691Z,5.60
2023-01-11T02:06:48.684Z,3.90
2023-01-11T02:07:48.578Z,4.50
2023-01-11T02:08:48.528Z,4.10
2023-01-11T02:09:48.464Z,5.20
2023-01-11T02:10:48.368Z,5.30
2023-01-11T02:11:48.274Z,4.20
2023-01-11T02:12:48.321Z,5.00
2023-01-11T02:13:48.169Z,4.30
2023-01-11T02:14:48.104Z,5.40
2023-01-11T02:15:48.067Z,4.50
2023-01-11T02:16:47.982Z,4.40
2023-01-11T02:17:47.929Z,4.70
2023-01-11T02:18:47.841Z,4.60
2023-01-11T02:19:47.791Z,4.20
2023-01-11T02:20:47.750Z,3.60
2023-01-11T02:21:47.642Z,4.10
2023-01-11T02:22:47.625Z,5.00
2023-01-11T02:23:47.566Z,4.10
2023-01-11T02:24:47.557Z,5.20
2023-01-11T02:25:47.410Z,4.00
2023-01-11T02:26:47.368Z,4.10
2023-01-11T02:27:47.268Z,4.30
2023-01-11T02:28:47.245Z,4.10
2023-01-11T02:29:47.157Z,4.60
2023-01-11T02:30:47.165Z,5.10
2023-01-11T02:31:47.070Z,4.40
2023-01-11T02:32:46.945Z,4.90
2023-01-11T02:33:46.909Z,4.20
2023-01-11T02:34:46.882Z,4.80
2023-01-11T02:35:46.756Z,4.50
2023-01-11T02:36:46.792Z,3.70
2023-01-11T02:37:46.680Z,5.20
2023-01-11T02:38:46.570Z,4.70
2023-01-11T02:39:46.516Z,4.40
2023-01-11T02:40:46.452Z,4.10
2023-01-11T02:41:46.430Z,4.10
2023-01-11T02:42:46.780Z,4.00
2023-01-11T02:43:46.308Z,3.60
2023-01-11T02:44:46.184Z,3.70
2023-01-11T02:45:46.141Z,4.10
2023-01-11T02:46:46.234Z,4.40
2023-01-11T02:47:46.015Z,4.90
2023-01-11T02:54:02.940Z,4.40
2023-01-11T02:55:03.940Z,4.20
2023-01-11T02:56:03.832Z,4.60
2023-01-11T02:57:03.771Z,4.30
2023-01-11T02:58:03.747Z,4.70
2023-01-11T02:59:03.696Z,4.70
2023-01-11T03:00:03.634Z,5.10
2023-01-11T03:01:03.523Z,4.60
2023-01-11T03:02:03.513Z,4.80
2023-01-11T03:03:03.468Z,5.00
2023-01-11T03:04:03.319Z,5.30
2023-01-11T03:05:03.246Z,5.00
2023-01-11T03:06:03.208Z,4.50
2023-01-11T03:07:03.148Z,5.00
2023-01-11T03:08:03.166Z,4.70
2023-01-11T03:09:03.019Z,4.60
2023-01-11T03:10:02.943Z,4.90
2023-01-11T03:11:02.924Z,4.90
2023-01-11T03:12:02.853Z,4.70
2023-01-11T03:13:02.777Z,5.30
2023-01-11T03:14:02.730Z,4.90
2023-01-11T03:15:02.634Z,4.60
2023-01-11T03:16:02.634Z,5.70
2023-01-11T03:17:02.526Z,4.60
2023-01-11T03:18:02.498Z,5.40
2023-01-11T03:19:02.380Z,5.40
2023-01-11T03:20:02.402Z,4.70
2023-01-11T03:21:02.226Z,4.80
2023-01-11T03:22:02.221Z,4.90
2023-01-11T03:23:02.128Z,5.10
2023-01-11T03:24:02.090Z,4.70
2023-01-11T03:25:02.010Z,5.30
2023-01-11T03:26:01.954Z,4.70
2023-01-11T03:27:01.902Z,4.50
2023-01-11T03:28:01.815Z,4.40
2023-01-11T03:29:01.756Z,4.30
2023-01-11T03:30:01.728Z,4.70
2023-01-11T03:31:01.687Z,5.70
2023-01-11T03:32:01.555Z,4.80
2023-01-11T03:33:01.532Z,4.80
2023-01-11T03:34:01.401Z,4.50
2023-01-11T03:35:01.399Z,4.10
2023-01-11T03:36:01.331Z,4.80
2023-01-11T03:37:01.281Z,5.60
2023-01-11T03:38:01.200Z,4.90
2023-01-11T03:39:01.172Z,5.30
2023-01-11T03:40:01.125Z,4.50
2023-01-11T03:41:00.989Z,4.60
2023-01-11T03:42:00.956Z,4.40
2023-01-11T03:43:00.920Z,4.40
2023-01-11T03:44:00.845Z,4.70
2023-01-11T03:45:00.720Z,4.70
2023-01-11T03:46:00.674Z,4.80
2023-01-11T03:47:00.728Z,4.50
2023-01-11T03:48:00.576Z,4.80
2023-01-11T03:49:00.518Z,4.70
2023-01-11T03:50:01.642Z,4.90
2023-01-11T03:51:00.393Z,4.60
2023-01-11T03:52:00.271Z,4.50
2023-01-11T03:53:00.258Z,5.20
2023-01-11T03:54:00.193Z,4.60
2023-01-11T03:55:00.150Z,4.40
2023-01-11T03:56:00.125Z,4.90
2023-01-11T03:57:00.007Z,4.40
2023-01-11T03:57:59.906Z,4.90
2023-01-11T03:58:59.827Z,4.60
2023-01-11T03:59:59.813Z,4.60
2023-01-11T04:00:59.797Z,4.50
2023-01-11T04:01:59.687Z,5.70
2023-01-11T04:02:59.574Z,4.50
2023-01-11T04:03:59.543Z,4.80
2023-01-11T04:04:59.479Z,5.20
2023-01-11T04:05:59.440Z,4.50
2023-01-11T04:06:59.414Z,4.90
2023-01-11T04:08:22.679Z,4.60
2023-01-11T04:08:59.256Z,5.40
2023-01-11T04:09:59.226Z,4.60
2023-01-11T04:10:59.090Z,4.70
2023-01-11T04:11:59.071Z,4.70
2023-01-11T04:12:59.024Z,5.10
2023-01-11T04:13:58.936Z,4.80
2023-01-11T04:14:58.825Z,5.40
2023-01-11T04:15:58.903Z,5.00
2023-01-11T04:16:58.704Z,5.00
2023-01-11T04:17:58.659Z,4.40
2023-01-11T04:18:58.615Z,4.20
2023-01-11T04:19:58.575Z,5.10
2023-01-11T04:20:58.455Z,5.00
2023-01-11T04:21:58.449Z,4.70
2023-01-11T04:22:58.344Z,5.00
2023-01-11T04:23:58.337Z,4.80
2023-01-11T04:24:58.237Z,5.00
2023-01-11T04:25:58.192Z,4.60
2023-01-11T04:26:58.055Z,5.10
2023-01-11T04:27:58.045Z,4.60
2023-01-11T04:28:57.932Z,4.50
2023-01-11T04:29:57.892Z,5.40
2023-01-11T04:30:57.893Z,5.50
2023-01-11T04:31:57.782Z,4.70
2023-01-11T04:32:57.715Z,4.60
2023-01-11T04:33:57.701Z,5.00
2023-01-11T04:34:57.556Z,5.00
2023-01-11T04:35:57.526Z,4.90
2023-01-11T04:36:57.493Z,4.80
2023-01-11T04:37:57.464Z,4.80
2023-01-11T04:38:57.323Z,4.50
2023-01-11T04:39:57.322Z,5.00
2023-01-11T04:40:57.258Z,5.00
2023-01-11T04:41:57.112Z,5.00
2023-01-11T04:42:57.096Z,4.60
2023-01-11T04:46:17.479Z,5.10
2023-01-11T04:47:18.446Z,5.60
2023-01-11T04:48:18.357Z,4.80
2023-01-11T04:49:18.277Z,5.20
2023-01-11T04:50:18.244Z,4.70
2023-01-11T04:51:18.214Z,5.40
2023-01-11T04:52:18.066Z,4.90
2023-01-11T04:53:18.059Z,4.70
2023-01-11T04:54:17.967Z,5.30
2023-01-11T04:55:17.932Z,4.90
2023-01-11T04:56:17.870Z,5.00
2023-01-11T05:00:56.072Z,5.20
2023-01-11T05:01:56.971Z,5.00
2023-01-11T05:02:56.959Z,5.80
2023-01-11T05:03:56.903Z,4.90
2023-01-11T05:04:56.821Z,5.20
2023-01-11T05:05:56.776Z,5.30
2023-01-11T05:06:56.713Z,4.20
2023-01-11T05:07:56.612Z,4.80
2023-01-11T05:08:56.536Z,5.40
2023-01-11T05:09:56.519Z,4.60
2023-01-11T05:10:56.423Z,4.20
2023-01-11T05:11:56.401Z,4.60
2023-01-11T05:12:56.305Z,4.30
2023-01-11T05:13:56.270Z,4.70
2023-01-11T05:14:56.201Z,4.40
2023-01-11T05:15:56.164Z,4.40
2023-01-11T05:16:56.083Z,3.80
2023-01-11T05:17:56.033Z,4.20
2023-01-11T05:18:55.954Z,3.90
2023-01-11T05:19:55.897Z,4.10
2023-01-11T05:20:55.814Z,4.50
2023-01-11T05:21:55.698Z,4.30
2023-01-11T05:24:04.907Z,4.20
2023-01-11T05:25:05.827Z,4.30
2023-01-11T05:26:05.768Z,4.20
2023-01-11T05:27:05.769Z,4.00
2023-01-11T05:28:05.624Z,4.10
2023-01-11T05:29:05.626Z,4.70
2023-01-11T05:30:05.489Z,4.40
2023-01-11T05:31:05.448Z,4.30
2023-01-11T05:32:05.385Z,4.40
2023-01-11T05:33:05.309Z,4.20
2023-01-11T05:34:05.321Z,4.40
2023-01-11T05:35:05.251Z,4.30
2023-01-11T05:36:05.166Z,4.10
2023-01-11T05:37:05.057Z,4.50
2023-01-11T05:38:05.081Z,4.70
2023-01-11T05:39:04.984Z,4.20
2023-01-11T05:40:04.947Z,4.20
2023-01-11T05:41:08.819Z,4.70
2023-01-11T05:42:04.764Z,4.50
2023-01-11T05:43:04.698Z,4.20
2023-01-11T05:44:04.610Z,4.30
2023-01-11T05:45:04.576Z,4.80
2023-01-11T05:46:04.569Z,4.70
2023-01-11T05:47:04.553Z,4.90
2023-01-11T05:48:04.375Z,4.80
2023-01-11T05:49:04.354Z,4.70
2023-01-11T05:50:04.256Z,4.50
2023-01-11T05:51:04.255Z,4.60
2023-01-11T05:52:04.159Z,4.70
2023-01-11T05:53:04.085Z,5.00
2023-01-11T05:54:03.980Z,4.70
2023-01-11T05:55:03.948Z,4.50
2023-01-11T05:56:03.876Z,5.10
2023-01-11T05:57:03.813Z,4.90
2023-01-11T05:58:03.784Z,4.80
2023-01-11T05:59:03.701Z,5.00
2023-01-11T06:00:03.621Z,4.60
2023-01-11T06:01:03.659Z,5.00
2023-01-11T06:02:03.536Z,5.60
2023-01-11T06:03:03.532Z,4.70
2023-01-11T06:04:03.387Z,4.70
2023-01-11T06:05:03.584Z,4.10
2023-01-11T06:06:03.272Z,4.90
2023-01-11T06:07:03.318Z,5.00
2023-01-11T06:08:03.150Z,4.80
2023-01-11T06:09:03.091Z,4.60
2023-01-11T06:10:02.978Z,4.80
2023-01-11T06:11:03.228Z,4.20
2023-01-11T06:12:02.870Z,4.90
2023-01-11T06:13:02.802Z,4.50
2023-01-11T06:14:02.723Z,4.60
2023-01-11T06:15:02.674Z,5.00
2023-01-11T06:16:02.636Z,5.60
2023-01-11T06:17:02.603Z,5.30
2023-01-11T06:18:02.520Z,5.00
2023-01-11T06:19:02.418Z,5.20
2023-01-11T06:20:02.389Z,5.20
2023-01-11T06:21:02.339Z,5.10
2023-01-11T06:22:02.293Z,4.80
2023-01-11T06:23:02.238Z,4.90
2023-01-11T06:24:02.099Z,5.30
2023-01-11T06:25:02.031Z,5.20
2023-01-11T06:26:01.982Z,5.20
2023-01-11T06:27:01.904Z,5.30
2023-01-11T06:28:01.869Z,4.50
2023-01-11T06:29:01.823Z,4.30
2023-01-11T06:30:02.655Z,4.80
2023-01-11T06:31:01.758Z,5.20
2023-01-11T06:32:01.651Z,4.90
2023-01-11T06:33:01.629Z,5.00
2023-01-11T06:34:01.506Z,4.60
2023-01-11T06:35:01.544Z,4.30
2023-01-11T06:36:01.392Z,5.00
2023-01-11T06:37:01.323Z,4.80
2023-01-11T06:38:01.205Z,5.20
2023-01-11T06:39:01.532Z,5.30
2023-01-11T06:40:01.206Z,5.30
2023-01-11T06:41:01.404Z,5.50
2023-01-11T06:42:01.674Z,6.20
2023-01-11T06:43:00.871Z,5.90
2023-01-11T06:44:03.599Z,5.60
2023-01-11T06:45:00.732Z,5.70
2023-01-11T06:46:00.816Z,5.90
2023-01-11T06:47:02.879Z,5.60
2023-01-11T06:48:00.566Z,5.70
2023-01-11T06:49:00.532Z,5.90
2023-01-11T06:50:00.446Z,6.30
2023-01-11T06:51:00.430Z,7.00
2023-01-11T06:52:00.374Z,7.50
2023-01-11T06:53:02.260Z,7.80
2023-01-11T06:54:00.209Z,7.50
2023-01-11T06:55:00.154Z,7.90
2023-01-11T06:56:00.045Z,7.40
2023-01-11T06:56:59.983Z,7.10
2023-01-11T06:57:59.963Z,7.70
2023-01-11T06:58:59.961Z,7.70
2023-01-11T06:59:59.901Z,8.40
2023-01-11T07:00:59.849Z,8.60
2023-01-11T07:01:59.752Z,8.30
2023-01-11T07:02:59.660Z,8.80
2023-01-11T07:03:59.561Z,8.50
2023-01-11T07:04:59.527Z,9.30
2023-01-11T07:05:59.422Z,9.10
2023-01-11T07:06:59.405Z,9.40
2023-01-11T07:07:59.351Z,12.60
2023-01-11T07:08:59.208Z,10.30
2023-01-11T07:09:59.171Z,10.20
2023-01-11T07:10:59.390Z,10.40
2023-01-11T07:11:59.043Z,8.90
2023-01-11T07:12:58.993Z,9.80
2023-01-11T07:13:58.925Z,10.40
2023-01-11T07:14:58.869Z,10.00
2023-01-11T07:15:58.831Z,11.90
2023-01-11T07:16:58.740Z,12.90
2023-01-11T07:17:58.672Z,11.70
2023-01-11T07:18:58.636Z,12.20
2023-01-11T07:19:59.319Z,11.90
2023-01-11T07:21:00.664Z,12.50
2023-01-11T07:22:00.809Z,12.80
2023-01-11T07:22:58.863Z,14.30
2023-01-11T07:23:58.290Z,12.90
2023-01-11T07:24:58.283Z,13.30
2023-01-11T07:25:58.218Z,13.40
2023-01-11T07:26:58.086Z,13.90
2023-01-11T07:27:58.083Z,13.20
2023-01-11T07:32:15.749Z,13.80
2023-01-11T07:33:16.735Z,14.10
2023-01-11T07:34:16.628Z,14.00
2023-01-11T07:35:16.560Z,14.00
2023-01-11T07:36:16.522Z,15.50
2023-01-11T07:37:28.653Z,13.20
2023-01-11T07:38:16.385Z,13.60
2023-01-11T07:39:16.655Z,15.00
2023-01-11T07:40:16.224Z,14.90
2023-01-11T07:41:16.374Z,16.50
2023-01-11T07:42:16.636Z,15.90
2023-01-11T07:43:16.730Z,15.60
2023-01-11T07:44:15.995Z,16.10
2023-01-11T07:45:16.013Z,15.90
2023-01-11T07:46:15.995Z,16.50
2023-01-11T07:47:15.856Z,17.10
2023-01-11T07:48:15.797Z,19.00
2023-01-11T07:49:15.681Z,21.00
2023-01-11T07:50:15.635Z,19.80
2023-01-11T07:51:15.614Z,21.50
2023-01-11T07:52:15.567Z,19.30
2023-01-11T07:53:15.464Z,19.80
2023-01-11T07:54:15.464Z,22.10
2023-01-11T07:55:15.336Z,21.70
2023-01-11T07:56:15.300Z,21.50
2023-01-11T07:57:15.192Z,21.20
2023-01-11T07:58:15.136Z,18.20
2023-01-11T07:59:15.062Z,19.20
2023-01-11T08:00:15.074Z,21.10
2023-01-11T08:01:14.922Z,23.90
2023-01-11T08:02:14.952Z,23.30
2023-01-11T08:03:15.003Z,22.90
2023-01-11T08:04:14.760Z,22.10
2023-01-11T08:05:14.705Z,23.60
2023-01-11T08:06:36.843Z,23.80
2023-01-11T08:07:14.553Z,22.70
2023-01-11T08:08:14.461Z,22.90
2023-01-11T08:09:14.453Z,24.70
2023-01-11T08:10:14.350Z,23.10
2023-01-11T08:11:14.291Z,26.40
2023-01-11T08:12:14.566Z,23.50
2023-01-11T08:13:14.171Z,23.10
2023-01-11T08:14:14.143Z,23.90
2023-01-11T08:15:14.092Z,24.10
2023-01-11T08:16:14.062Z,23.50
2023-01-11T08:17:13.949Z,22.70
2023-01-11T08:18:13.883Z,21.80
2023-01-11T08:19:13.797Z,22.70
2023-01-11T08:20:13.791Z,23.60
2023-01-11T08:21:14.869Z,20.20
2023-01-11T08:22:13.629Z,24.20
2023-01-11T08:23:13.598Z,25.70
2023-01-11T08:26:34.227Z,17.80
2023-01-11T08:27:34.487Z,19.10
2023-01-11T08:28:33.074Z,19.10
2023-01-11T08:29:33.067Z,17.00
2023-01-11T08:30:33.351Z,16.00
2023-01-11T08:31:32.879Z,16.70
2023-01-11T08:32:32.790Z,15.70
2023-01-11T08:33:32.849Z,17.50
2023-01-11T08:34:34.501Z,16.70
2023-01-11T08:35:32.574Z,16.70
2023-01-11T08:36:32.559Z,15.10
2023-01-11T08:37:32.523Z,16.40
2023-01-11T08:38:32.383Z,16.70
2023-01-11T08:39:32.389Z,14.10
2023-01-11T08:40:32.286Z,15.50
2023-01-11T08:41:32.283Z,13.40
2023-01-11T08:42:32.206Z,12.50
2023-01-11T08:48:08.831Z,9.90
2023-01-11T08:49:09.769Z,10.50
2023-01-11T08:50:09.748Z,11.10
2023-01-11T08:51:09.698Z,11.70
2023-01-11T08:52:09.595Z,11.60
2023-01-11T08:53:10.949Z,10.90
2023-01-11T08:54:09.476Z,10.60
2023-01-11T08:55:09.404Z,11.30
2023-01-11T08:56:09.319Z,11.40
2023-01-11T08:57:09.274Z,10.60
2023-01-11T08:58:09.209Z,10.90
2023-01-11T08:59:09.161Z,10.30
2023-01-11T09:00:09.079Z,9.30
2023-01-11T09:01:08.987Z,11.10
2023-01-11T09:02:08.957Z,9.80
2023-01-11T09:03:08.949Z,10.30
2023-01-11T09:04:23.182Z,11.30
2023-01-11T09:05:30.984Z,10.60
2023-01-11T09:06:08.714Z,11.70
2023-01-11T09:07:08.591Z,12.40
2023-01-11T09:08:08.593Z,12.40
2023-01-11T09:09:08.500Z,12.70
2023-01-11T09:10:08.437Z,14.20
2023-01-11T09:11:08.444Z,14.20
2023-01-11T09:12:08.305Z,15.60
2023-01-11T09:13:08.259Z,14.60
2023-01-11T09:14:08.167Z,13.70
2023-01-11T09:15:08.162Z,13.90
2023-01-11T09:16:08.099Z,14.20
2023-01-11T09:17:08.108Z,12.10
2023-01-11T09:18:07.990Z,13.90
2023-01-11T09:19:07.866Z,12.10
2023-01-11T09:20:07.874Z,13.60
2023-01-11T09:21:28.821Z,12.80
2023-01-11T09:22:07.698Z,12.60
2023-01-11T09:23:07.613Z,12.10
2023-01-11T09:24:08.832Z,12.70
2023-01-11T09:25:07.483Z,10.90
2023-01-11T09:26:07.453Z,9.80
2023-01-11T09:27:07.468Z,11.50
2023-01-11T09:28:07.369Z,11.80
2023-01-11T09:29:07.482Z,10.30
2023-01-11T09:30:07.228Z,12.10
2023-01-11T09:31:07.129Z,11.40
2023-01-11T09:32:07.076Z,12.30
2023-01-11T09:33:07.015Z,10.30
2023-01-11T09:34:07.090Z,11.30
2023-01-11T09:35:06.920Z,12.70
2023-01-11T09:36:06.795Z,11.80
2023-01-11T09:37:06.913Z,12.10
2023-01-11T09:38:06.727Z,10.60
2023-01-11T09:39:06.732Z,11.50
2023-01-11T09:40:06.565Z,10.20
2023-01-11T09:43:54.592Z,8.80
2023-01-11T09:44:55.495Z,9.90
2023-01-11T09:45:55.457Z,12.80
2023-01-11T09:46:55.456Z,13.40
2023-01-11T09:47:55.281Z,12.20
2023-01-11T09:48:55.273Z,13.40
2023-01-11T09:49:55.204Z,14.10
2023-01-11T09:50:55.116Z,10.70
2023-01-11T09:51:55.070Z,13.30
2023-01-11T09:52:55.009Z,14.30
2023-01-11T09:53:54.895Z,13.90
2023-01-11T09:54:54.859Z,13.60
2023-01-11T09:55:54.772Z,15.20
2023-01-11T09:56:54.741Z,15.50
2023-01-11T09:57:54.739Z,15.50
2023-01-11T09:58:54.609Z,14.90
2023-01-11T09:59:54.602Z,15.70
2023-01-11T10:03:16.874Z,16.30
2023-01-11T10:04:13.773Z,17.50
2023-01-11T10:05:13.785Z,16.20
2023-01-11T10:06:13.663Z,14.90
2023-01-11T10:07:13.601Z,16.10
2023-01-11T10:18:23.604Z,15.60
2023-01-11T10:19:17.171Z,16.80
2023-01-11T10:22:41.398Z,10.90
2023-01-11T10:23:42.342Z,12.40
2023-01-11T10:24:43.265Z,9.90
2023-01-11T10:25:42.201Z,11.80
2023-01-11T10:26:44.053Z,11.00
2023-01-11T10:27:43.025Z,8.30
2023-01-11T10:28:42.018Z,9.70
2023-01-11T10:29:41.920Z,8.10
2023-01-11T10:30:42.024Z,7.50
2023-01-11T10:31:41.890Z,8.10
2023-01-11T10:32:41.745Z,5.50
2023-01-11T10:33:41.724Z,5.10
2023-01-11T10:34:41.644Z,4.60
2023-01-11T10:35:41.581Z,5.10
2023-01-11T10:36:41.520Z,4.90
2023-01-11T10:37:41.441Z,5.20
2023-01-11T10:41:00.763Z,4.70
2023-01-11T10:42:01.626Z,5.10
2023-01-11T10:43:01.597Z,5.30
2023-01-11T10:44:01.521Z,5.10
2023-01-11T10:45:01.471Z,5.70
2023-01-11T10:46:01.405Z,6.10
2023-01-11T10:47:01.380Z,5.70
2023-01-11T10:48:01.267Z,5.20
2023-01-11T10:49:01.160Z,5.40
2023-01-11T10:50:01.145Z,4.80
2023-01-11T10:51:01.056Z,6.00
2023-01-11T10:52:01.035Z,5.70
2023-01-11T10:53:00.959Z,5.00
2023-01-11T10:54:00.888Z,5.60
2023-01-11T10:55:00.796Z,5.80
2023-01-11T10:56:00.750Z,7.20
2023-01-11T10:57:03.556Z,7.60
2023-01-11T10:58:03.734Z,7.50
2023-01-11T10:59:00.588Z,7.00
2023-01-11T11:00:00.531Z,8.10
2023-01-11T11:01:00.663Z,8.20
2023-01-11T11:02:00.402Z,8.20
2023-01-11T11:03:00.338Z,8.00
2023-01-11T11:04:00.759Z,8.50
2023-01-11T11:05:00.219Z,8.60
2023-01-11T11:06:00.139Z,8.00
2023-01-11T11:07:00.090Z,6.70
2023-01-11T11:08:00.032Z,5.80
2023-01-11T11:08:59.946Z,6.80
2023-01-11T11:09:59.914Z,6.30
2023-01-11T11:10:59.791Z,7.10
2023-01-11T11:11:59.730Z,6.10
2023-01-11T11:12:59.662Z,5.50
2023-01-11T11:13:59.650Z,5.80
2023-01-11T11:14:59.587Z,5.20
2023-01-11T11:15:59.549Z,6.10
2023-01-11T11:16:59.464Z,6.40
2023-01-11T11:17:59.385Z,5.80
2023-01-11T11:18:59.342Z,6.10
2023-01-11T11:19:59.265Z,5.20
2023-01-11T11:20:59.200Z,5.60
2023-01-11T11:21:59.385Z,5.20
2023-01-11T11:22:59.031Z,5.40
2023-01-11T11:23:59.000Z,6.00
2023-01-11T11:24:58.887Z,6.10
2023-01-11T11:25:58.863Z,5.30
2023-01-11T11:26:59.742Z,5.30
2023-01-11T11:27:58.741Z,5.40
2023-01-11T11:28:58.720Z,5.00
2023-01-11T11:29:58.568Z,5.30
2023-01-11T11:30:58.526Z,5.20
2023-01-11T11:31:58.514Z,5.20
2023-01-11T11:32:58.415Z,5.30
2023-01-11T11:33:58.351Z,5.90
2023-01-11T11:34:58.291Z,5.10
2023-01-11T11:35:58.247Z,5.30
2023-01-11T11:36:58.213Z,5.70
2023-01-11T11:37:58.096Z,5.40
2023-01-11T11:38:58.005Z,5.60
2023-01-11T11:39:58.007Z,5.90
2023-01-11T11:40:57.957Z,6.40
2023-01-11T11:41:57.838Z,7.20
2023-01-11T11:42:57.800Z,6.40
2023-01-11T11:43:57.769Z,5.80
2023-01-11T11:44:57.677Z,7.40
2023-01-11T11:45:57.613Z,7.30
2023-01-11T11:46:57.531Z,7.10
2023-01-11T11:47:57.456Z,7.70
2023-01-11T11:48:57.387Z,8.50
2023-01-11T11:49:57.426Z,7.90
2023-01-11T11:50:57.258Z,8.90
2023-01-11T11:54:15.517Z,8.80
2023-01-11T11:55:16.490Z,9.20
2023-01-11T11:56:16.447Z,3.90
2023-01-11T11:57:16.350Z,3.60
2023-01-11T11:58:16.272Z,3.90
2023-01-11T11:59:16.237Z,3.70
2023-01-11T12:00:16.279Z,3.40
2023-01-11T12:01:16.116Z,3.30
2023-01-11T12:02:16.073Z,3.40
2023-01-11T12:03:15.966Z,3.10
2023-01-11T12:04:15.979Z,3.40
2023-01-11T12:05:15.900Z,3.40
2023-01-11T12:06:16.074Z,3.60
2023-01-11T12:07:15.744Z,3.30
2023-01-11T12:08:15.696Z,3.20
2023-01-11T12:09:15.564Z,3.70
2023-01-11T12:10:15.530Z,3.00
2023-01-11T12:13:33.872Z,2.70
2023-01-11T12:14:34.732Z,3.10
2023-01-11T12:15:34.677Z,3.90
2023-01-11T12:16:34.635Z,3.50
2023-01-11T12:17:34.575Z,2.70
2023-01-11T12:18:34.500Z,3.40
2023-01-11T12:19:34.436Z,3.20
2023-01-11T12:20:34.358Z,3.50
2023-01-11T12:21:34.293Z,4.00
2023-01-11T12:22:34.261Z,3.70
2023-01-11T12:23:34.235Z,4.00
2023-01-11T12:24:34.568Z,3.30
2023-01-11T12:25:34.052Z,3.30
2023-01-11T12:26:34.080Z,3.50
2023-01-11T12:27:33.907Z,3.20
2023-01-11T12:28:33.855Z,3.30
2023-01-11T12:29:33.810Z,3.50
2023-01-11T12:30:56.069Z,3.80
2023-01-11T12:31:33.694Z,3.50
2023-01-11T12:32:33.833Z,3.20
2023-01-11T12:33:33.563Z,2.90
2023-01-11T12:34:33.486Z,3.20
2023-01-11T12:35:33.414Z,3.30
2023-01-11T12:36:34.353Z,2.80
2023-01-11T12:37:33.323Z,3.20
2023-01-11T12:38:33.242Z,2.90
2023-01-11T12:39:33.191Z,2.90
2023-01-11T12:40:33.101Z,2.50
2023-01-11T12:41:33.071Z,2.80
2023-01-11T12:42:33.002Z,2.60
2023-01-11T12:43:32.943Z,2.60
2023-01-11T12:44:33.139Z,2.90
2023-01-11T12:45:32.828Z,2.10
2023-01-11T12:46:32.731Z,2.90
2023-01-11T12:47:32.699Z,2.50
2023-01-11T12:59:39.337Z,1.30
2023-01-11T13:00:40.264Z,0.70
2023-01-11T13:01:40.294Z,1.80
2023-01-11T13:02:40.157Z,15.30
2023-01-11T13:03:40.081Z,1.60
2023-01-11T13:04:39.984Z,1.60
2023-01-11T13:05:39.917Z,0.80
2023-01-11T13:06:39.933Z,1.40
2023-01-11T13:07:39.836Z,1.30
2023-01-11T13:08:39.754Z,0.80
2023-01-11T13:09:39.736Z,0.80
2023-01-11T13:10:39.620Z,1.20
2023-01-11T13:11:39.543Z,1.20
2023-01-11T13:12:39.528Z,1.30
2023-01-11T13:13:39.397Z,1.00
2023-01-11T13:14:39.397Z,1.20
2023-01-11T13:15:39.324Z,0.90
2023-01-11T13:16:39.302Z,0.80
2023-01-11T13:17:39.189Z,1.00
2023-01-11T13:18:39.150Z,0.80
2023-01-11T13:19:39.042Z,1.30
2023-01-11T13:20:58.873Z,1.40
2023-01-11T13:21:38.960Z,0.90
2023-01-11T13:22:38.847Z,1.20
2023-01-11T13:23:38.787Z,1.00
2023-01-11T13:24:38.748Z,1.40
2023-01-11T13:25:38.667Z,1.00
2023-01-11T13:26:38.712Z,0.90
2023-01-11T13:27:38.601Z,1.20
2023-01-11T13:28:40.613Z,0.80
2023-01-11T13:29:38.516Z,0.70
2023-01-11T13:30:38.455Z,0.80
2023-01-11T13:31:38.324Z,0.90
2023-01-11T13:32:38.229Z,1.00
2023-01-11T13:33:38.224Z,1.00
2023-01-11T13:34:38.164Z,0.90
2023-01-11T13:35:38.833Z,1.20
2023-01-11T13:36:38.066Z,0.70
2023-01-11T13:37:37.978Z,0.90
2023-01-11T13:38:37.881Z,1.40
2023-01-11T13:39:37.761Z,0.80
2023-01-11T13:40:37.781Z,0.70
2023-01-11T13:41:37.668Z,0.80
2023-01-11T13:42:37.631Z,0.90
2023-01-11T13:43:37.564Z,1.30
2023-01-11T13:44:37.503Z,0.80
2023-01-11T13:45:37.467Z,0.60
2023-01-11T13:46:37.525Z,1.50
2023-01-11T13:47:37.327Z,0.80
2023-01-11T13:48:37.252Z,1.00
2023-01-11T13:49:37.282Z,0.80
2023-01-11T13:50:37.144Z,1.20
2023-01-11T13:51:37.092Z,1.10
2023-01-11T13:52:36.945Z,1.00
2023-01-11T13:53:38.855Z,2.20
2023-01-11T13:54:37.483Z,1.30
2023-01-11T13:55:37.771Z,0.70
2023-01-11T13:56:39.004Z,0.90
2023-01-11T13:57:37.539Z,1.20
2023-01-11T13:58:37.095Z,1.20
2023-01-11T13:59:36.548Z,0.90
2023-01-11T14:00:36.444Z,1.20
2023-01-11T14:01:36.550Z,1.00
2023-01-11T14:02:38.333Z,1.20
2023-01-11T14:03:36.367Z,1.20
2023-01-11T14:04:36.199Z,1.50
2023-01-11T14:05:37.229Z,1.20
2023-01-11T14:06:37.243Z,1.10
2023-01-11T14:07:36.044Z,1.20
2023-01-11T14:08:36.510Z,0.90
2023-01-11T14:09:35.927Z,1.10
2023-01-11T14:10:35.870Z,1.20
2023-01-11T14:11:36.417Z,1.40
2023-01-11T14:12:35.683Z,1.90
2023-01-11T14:13:35.663Z,1.50
2023-01-11T14:14:37.467Z,0.90
2023-01-11T14:15:35.528Z,1.30